Time;durP1;ratioP1;P1;durP2;ratioP2;P2;SDS_P1;SDS_P2;PMS_P1;PMS_P2;Temp;Humidity;BMP_temperature;BMP_pressure;BME280_temperature;BME280_humidity;BME280_pressure;Samples;Min_cycle;Max_cycle;Signal;HPM_P1;HPM_P2
2023/03/15 00:01:17;;;;;;;4.47;3.65;;;19.20;52.00;;;;;;5014605;28;20249;-70
2023/03/15 00:03:44;;;;;;;4.70;3.83;;;19.20;52.10;;;;;;5014364;28;20217;-70
2023/03/15 00:06:11;;;;;;;3.95;3.55;;;19.20;52.00;;;;;;5047565;28;20229;-70
2023/03/15 00:08:37;;;;;;;4.47;3.63;;;19.20;52.00;;;;;;5013895;28;20238;-70
2023/03/15 00:11:04;;;;;;;4.03;3.63;;;19.20;52.30;;;;;;5047280;28;20191;-70
2023/03/15 00:13:31;;;;;;;4.00;3.60;;;19.20;52.20;;;;;;5014029;28;20196;-71
2023/03/15 00:16:02;;;;;;;4.25;3.85;;;19.20;52.40;;;;;;5031032;28;20317;-70
2023/03/15 00:18:28;;;;;;;4.05;3.70;;;19.20;52.20;;;;;;5047172;28;20241;-70
2023/03/15 00:20:54;;;;;;;3.78;3.40;;;19.20;52.20;;;;;;5047360;28;20190;-71
2023/03/15 00:23:20;;;;;;;4.57;4.18;;;19.20;52.20;;;;;;5014044;28;20245;-71
2023/03/15 00:25:49;;;;;;;4.63;3.80;;;19.20;52.20;;;;;;5030449;28;20183;-70
2023/03/15 00:28:15;;;;;;;3.45;3.15;;;19.20;52.20;;;;;;5047002;28;20238;-70
2023/03/15 00:30:42;;;;;;;4.57;3.92;;;19.20;52.20;;;;;;5014110;28;20201;-71
2023/03/15 00:33:12;;;;;;;4.15;3.80;;;19.20;52.20;;;;;;5047249;28;20257;-70
2023/03/15 00:35:44;;;;;;;4.10;3.70;;;19.20;52.30;;;;;;5030481;28;20190;-68
2023/03/15 00:38:10;;;;;;;4.07;3.67;;;19.20;52.30;;;;;;5046682;28;20226;-68
2023/03/15 00:40:37;;;;;;;3.80;3.45;;;19.20;52.30;;;;;;5049815;28;20183;-66
2023/03/15 00:43:04;;;;;;;4.13;3.72;;;19.20;52.30;;;;;;5053167;28;20717;-68
2023/03/15 00:45:30;;;;;;;3.92;3.40;;;19.20;52.40;;;;;;5047074;28;20195;-68
2023/03/15 00:47:55;;;;;;;4.40;3.70;;;19.20;52.40;;;;;;5029926;28;20207;-68
2023/03/15 00:50:23;;;;;;;6.05;4.00;;;19.20;52.30;;;;;;5046704;28;20655;-68
2023/03/15 00:52:48;;;;;;;4.18;3.67;;;19.30;52.50;;;;;;5006257;28;20187;-68
2023/03/15 00:55:17;;;;;;;4.35;3.85;;;19.20;52.40;;;;;;5046977;28;20665;-68
2023/03/15 00:57:45;;;;;;;3.60;3.30;;;19.20;52.40;;;;;;5013722;28;20274;-69
2023/03/15 01:00:18;;;;;;;4.05;3.47;;;19.20;52.40;;;;;;5013989;28;20566;-68
2023/03/15 01:02:45;;;;;;;4.15;3.63;;;19.20;52.50;;;;;;5030172;28;20183;-68
2023/03/15 01:05:12;;;;;;;4.25;3.85;;;19.20;52.30;;;;;;5046977;28;20189;-68
2023/03/15 01:07:38;;;;;;;4.13;3.75;;;19.30;52.60;;;;;;5046643;28;20184;-68
2023/03/15 01:10:05;;;;;;;4.15;3.75;;;19.30;52.60;;;;;;5047115;28;20184;-68
2023/03/15 01:12:33;;;;;;;4.07;3.70;;;19.20;52.40;;;;;;5046864;28;20617;-68
2023/03/15 01:15:02;;;;;;;3.83;3.53;;;19.30;52.50;;;;;;5013606;28;20229;-68
2023/03/15 01:17:28;;;;;;;4.55;4.15;;;19.20;52.40;;;;;;5013413;28;20237;-67
2023/03/15 01:19:54;;;;;;;4.25;3.85;;;19.20;52.50;;;;;;5046693;28;20191;-68
2023/03/15 01:22:20;;;;;;;4.10;3.70;;;19.30;52.50;;;;;;5013330;28;20191;-68
2023/03/15 01:24:46;;;;;;;3.78;3.45;;;19.20;52.60;;;;;;5013346;28;20208;-68
2023/03/15 01:27:12;;;;;;;4.00;3.60;;;19.30;52.60;;;;;;5046688;28;20191;-68
2023/03/15 01:29:38;;;;;;;4.25;3.40;;;19.30;52.70;;;;;;5013658;28;20230;-71
2023/03/15 01:32:06;;;;;;;4.00;3.60;;;19.30;52.60;;;;;;5013854;28;20184;-68
2023/03/15 01:34:32;;;;;;;3.35;3.05;;;19.30;52.70;;;;;;5013241;28;20194;-68
2023/03/15 01:36:58;;;;;;;4.53;3.65;;;19.30;52.60;;;;;;5013558;28;20195;-68
2023/03/15 01:39:30;;;;;;;4.35;3.60;;;19.30;52.60;;;;;;5047003;28;20246;-68
2023/03/15 01:41:56;;;;;;;3.90;3.60;;;19.20;52.60;;;;;;5017171;28;20214;-68
2023/03/15 01:44:24;;;;;;;3.85;3.45;;;19.30;52.60;;;;;;5017005;28;20211;-68
2023/03/15 01:46:50;;;;;;;3.58;3.20;;;19.20;52.60;;;;;;5021649;28;20186;-68
2023/03/15 01:49:28;;;;;;;3.80;3.30;;;19.30;52.60;;;;;;5017471;28;20289;-68
2023/03/15 01:52:01;;;;;;;3.58;3.28;;;19.20;52.50;;;;;;5017034;28;20187;-68
2023/03/15 01:54:44;;;;;;;4.68;3.47;;;19.20;53.10;;;;;;5048728;28;20183;-68
2023/03/15 01:57:44;;;;;;;4.10;3.70;;;19.20;52.50;;;;;;5013551;28;20188;-68
2023/03/15 02:00:18;;;;;;;3.45;3.15;;;19.20;52.50;;;;;;5025343;28;20237;-68
2023/03/15 02:03:15;;;;;;;3.30;3.00;;;19.20;52.50;;;;;;5048824;28;20224;-68
2023/03/15 02:05:53;;;;;;;3.75;3.38;;;19.20;52.40;;;;;;5017135;28;20183;-68
2023/03/15 02:08:34;;;;;;;4.05;3.50;;;19.20;52.40;;;;;;5017359;28;20226;-68
2023/03/15 02:11:03;;;;;;;3.40;3.10;;;19.20;52.40;;;;;;5016764;28;20195;-68
2023/03/15 02:13:32;;;;;;;3.65;3.30;;;19.20;52.40;;;;;;5032725;28;20194;-68
2023/03/15 02:16:05;;;;;;;3.33;3.03;;;19.20;52.40;;;;;;5017073;28;20241;-68
2023/03/15 02:18:35;;;;;;;3.40;3.10;;;19.20;52.40;;;;;;5017031;28;20242;-68
2023/03/15 02:21:29;;;;;;;3.47;3.08;;;19.20;52.40;;;;;;5049539;28;20230;-68
2023/03/15 02:24:15;;;;;;;3.72;3.35;;;19.20;52.40;;;;;;5016699;28;20246;-68
2023/03/15 02:26:48;;;;;;;3.50;3.20;;;19.20;52.40;;;;;;5016108;28;20195;-68
2023/03/15 02:29:14;;;;;;;3.97;3.33;;;19.30;52.50;;;;;;5049490;28;20209;-68
2023/03/15 02:31:40;;;;;;;3.88;3.15;;;19.20;52.30;;;;;;5016226;28;20632;-68
2023/03/15 02:34:07;;;;;;;3.38;3.08;;;19.20;52.40;;;;;;5049143;28;20291;-66
2023/03/15 02:36:35;;;;;;;3.30;2.80;;;19.20;52.40;;;;;;5016047;28;20187;-69
2023/03/15 02:39:13;;;;;;;3.30;3.00;;;19.20;52.40;;;;;;5015938;28;20223;-68
2023/03/15 02:41:52;;;;;;;3.10;2.90;;;19.20;52.30;;;;;;5049134;28;20195;-68
2023/03/15 02:44:32;;;;;;;3.22;2.70;;;19.20;52.40;;;;;;5017865;28;20298;-68
2023/03/15 02:47:07;;;;;;;3.28;2.92;;;19.20;52.30;;;;;;5015687;28;20191;-68
2023/03/15 02:49:39;;;;;;;3.58;3.05;;;19.20;52.30;;;;;;5015704;28;20207;-68
2023/03/15 02:52:07;;;;;;;3.38;2.72;;;19.20;52.30;;;;;;5047773;28;20191;-68
2023/03/15 02:54:33;;;;;;;3.17;2.83;;;19.20;52.30;;;;;;5048640;28;20187;-68
2023/03/15 02:57:01;;;;;;;3.55;2.72;;;19.20;52.30;;;;;;5048876;28;20198;-68
2023/03/15 02:59:28;;;;;;;3.17;2.90;;;19.20;52.20;;;;;;5048617;28;20207;-69
2023/03/15 03:01:55;;;;;;;3.30;3.00;;;19.20;52.30;;;;;;5048692;28;20191;-69
2023/03/15 03:04:21;;;;;;;3.10;2.60;;;19.20;52.20;;;;;;5015431;28;20211;-68
2023/03/15 03:06:47;;;;;;;2.90;2.60;;;19.20;52.20;;;;;;5031791;28;20186;-68
2023/03/15 03:09:17;;;;;;;3.35;2.63;;;19.20;52.20;;;;;;5016008;28;20222;-68
2023/03/15 03:11:43;;;;;;;2.95;2.63;;;19.20;52.20;;;;;;5015921;28;20230;-68
2023/03/15 03:14:12;;;;;;;3.35;2.33;;;19.20;52.20;;;;;;5048611;28;20285;-68
2023/03/15 03:16:41;;;;;;;2.13;1.92;;;19.20;52.20;;;;;;5015234;28;20191;-68
2023/03/15 03:19:11;;;;;;;2.83;2.60;;;19.20;52.20;;;;;;5048605;28;20242;-68
2023/03/15 03:21:38;;;;;;;3.25;2.63;;;19.20;52.20;;;;;;5031909;28;20191;-68
2023/03/15 03:24:04;;;;;;;2.42;2.22;;;19.20;52.20;;;;;;5015090;28;20207;-68
2023/03/15 03:26:31;;;;;;;2.30;2.10;;;19.20;52.20;;;;;;5048263;28;20277;-68
2023/03/15 03:28:58;;;;;;;2.67;2.45;;;19.20;52.20;;;;;;5038228;28;20211;-69
2023/03/15 03:31:27;;;;;;;2.50;2.30;;;19.20;52.20;;;;;;5031808;28;20187;-68
2023/03/15 03:33:55;;;;;;;2.60;2.40;;;19.20;52.20;;;;;;5015007;28;20203;-68
2023/03/15 03:36:23;;;;;;;3.35;2.42;;;19.20;52.10;;;;;;5048070;28;20183;-69
2023/03/15 03:38:50;;;;;;;3.00;2.60;;;19.20;52.00;;;;;;5055277;22;20253;-69
2023/03/15 03:41:16;;;;;;;2.65;2.40;;;19.10;52.00;;;;;;5051327;28;20179;-70
2023/03/15 03:43:42;;;;;;;2.75;2.38;;;19.10;52.00;;;;;;5050925;28;20234;-70
2023/03/15 03:46:09;;;;;;;3.00;2.50;;;19.20;52.10;;;;;;5051201;28;20190;-69
2023/03/15 03:48:39;;;;;;;2.53;2.30;;;19.20;52.00;;;;;;5035014;28;20214;-69
2023/03/15 03:51:06;;;;;;;2.40;2.20;;;19.20;52.00;;;;;;5051127;28;20215;-70
2023/03/15 03:53:31;;;;;;;2.83;2.50;;;19.20;52.00;;;;;;5034069;28;20283;-69
2023/03/15 03:55:58;;;;;;;2.20;2.00;;;19.10;51.90;;;;;;5034428;28;20194;-70
2023/03/15 03:58:24;;;;;;;2.47;2.20;;;19.10;51.90;;;;;;5033985;28;20584;-69
2023/03/15 04:00:56;;;;;;;2.42;2.20;;;19.20;52.00;;;;;;5050828;28;20179;-70
2023/03/15 04:03:27;;;;;;;2.25;1.98;;;19.20;52.10;;;;;;5033808;28;20206;-69
2023/03/15 04:06:04;;;;;;;2.30;2.10;;;19.20;51.90;;;;;;5035639;28;20183;-69
2023/03/15 04:08:31;;;;;;;2.70;2.10;;;19.10;51.90;;;;;;5050605;28;20213;-69
2023/03/15 04:10:57;;;;;;;1.95;1.75;;;19.20;51.90;;;;;;5034235;28;20186;-69
2023/03/15 04:13:26;;;;;;;2.58;2.00;;;19.10;51.80;;;;;;5050451;28;20183;-69
2023/03/15 04:15:56;;;;;;;2.35;2.15;;;19.10;51.80;;;;;;5034204;28;20202;-69
2023/03/15 04:18:23;;;;;;;2.30;1.83;;;19.10;51.80;;;;;;5034005;28;20217;-69
2023/03/15 04:20:53;;;;;;;2.47;1.90;;;19.20;51.90;;;;;;5050493;28;20232;-69
2023/03/15 04:23:21;;;;;;;2.53;2.17;;;19.10;51.70;;;;;;5050475;28;20210;-70
2023/03/15 04:26:04;;;;;;;3.58;2.25;;;19.20;51.90;;;;;;5044287;28;20186;-69
2023/03/15 04:28:49;;;;;;;2.53;1.90;;;19.20;51.80;;;;;;5028398;28;20245;-69
2023/03/15 04:31:37;;;;;;;2.50;1.85;;;19.10;51.70;;;;;;5063889;28;20224;-69
2023/03/15 04:34:27;;;;;;;2.33;2.13;;;19.10;51.70;;;;;;5043078;28;20198;-69
2023/03/15 04:37:22;;;;;;;2.42;1.90;;;19.20;51.80;;;;;;5041869;28;20252;-70
2023/03/15 04:40:14;;;;;;;2.53;1.98;;;19.10;51.60;;;;;;5045075;28;20229;-70
2023/03/15 04:42:54;;;;;;;2.40;1.73;;;19.10;51.70;;;;;;5028369;28;20566;-70
2023/03/15 04:45:35;;;;;;;1.70;1.60;;;19.10;51.60;;;;;;5035864;28;20193;-69
2023/03/15 04:48:19;;;;;;;2.08;1.88;;;19.10;51.70;;;;;;5050285;28;20206;-69
2023/03/15 04:51:05;;;;;;;2.33;1.98;;;19.10;51.60;;;;;;5036527;28;20178;-70
2023/03/15 04:53:39;;;;;;;2.47;1.90;;;19.10;51.60;;;;;;5050152;28;20688;-70
2023/03/15 04:56:36;;;;;;;2.40;2.20;;;19.10;51.60;;;;;;5031479;28;20330;-70
2023/03/15 04:59:37;;;;;;;2.13;1.92;;;19.10;51.60;;;;;;4997816;28;20211;-69
2023/03/15 05:02:22;;;;;;;2.28;1.90;;;19.10;51.60;;;;;;5059494;28;20241;-69
2023/03/15 05:05:02;;;;;;;2.50;1.77;;;19.10;51.60;;;;;;5035529;28;20343;-70
2023/03/15 05:07:40;;;;;;;2.53;1.98;;;19.10;51.50;;;;;;5049988;28;20216;-69
2023/03/15 05:10:21;;;;;;;1.95;1.83;;;19.10;51.50;;;;;;5050544;28;20197;-71
2023/03/15 05:13:10;;;;;;;2.30;1.67;;;19.10;51.50;;;;;;5036478;28;20220;-70
2023/03/15 05:15:47;;;;;;;1.95;1.75;;;19.10;51.50;;;;;;5037365;28;20179;-70
2023/03/15 05:18:32;;;;;;;2.53;1.90;;;19.10;51.40;;;;;;5067692;28;20220;-70
2023/03/15 05:21:31;;;;;;;2.03;1.63;;;19.10;51.40;;;;;;5033476;28;20199;-70
2023/03/15 05:24:16;;;;;;;3.70;1.80;;;19.10;51.40;;;;;;5038816;28;20245;-70
2023/03/15 05:26:57;;;;;;;2.38;1.90;;;19.10;51.50;;;;;;5045877;28;20212;-70
2023/03/15 05:29:44;;;;;;;2.03;1.58;;;19.10;51.40;;;;;;5054373;28;20236;-68
2023/03/15 05:32:16;;;;;;;2.55;1.52;;;19.10;51.40;;;;;;5054414;28;20203;-71
2023/03/15 05:34:55;;;;;;;1.92;1.58;;;19.10;51.40;;;;;;5054220;28;20623;-70
2023/03/15 05:37:41;;;;;;;2.80;1.60;;;19.10;51.40;;;;;;5053907;28;20274;-70
2023/03/15 05:40:20;;;;;;;2.03;1.80;;;19.10;51.40;;;;;;5054721;28;20653;-70
2023/03/15 05:43:09;;;;;;;2.30;1.65;;;19.10;51.30;;;;;;5050389;28;20221;-70
2023/03/15 05:45:48;;;;;;;2.20;1.85;;;19.10;51.40;;;;;;5039594;28;20239;-69
2023/03/15 05:48:23;;;;;;;2.13;1.88;;;19.20;51.40;;;;;;5054115;28;20218;-70
2023/03/15 05:51:12;;;;;;;2.20;1.60;;;19.10;51.20;;;;;;5051477;28;20252;-70
2023/03/15 05:53:50;;;;;;;1.85;1.52;;;19.10;51.30;;;;;;5047669;28;20204;-70
2023/03/15 05:56:45;;;;;;;2.47;1.70;;;19.10;51.30;;;;;;5045701;28;20276;-70
2023/03/15 05:59:29;;;;;;;2.20;1.70;;;19.10;51.20;;;;;;5054858;28;20225;-70
2023/03/15 06:02:18;;;;;;;2.47;1.58;;;19.10;51.30;;;;;;5041339;28;20178;-70
2023/03/15 06:04:56;;;;;;;2.45;2.25;;;19.10;51.20;;;;;;5053678;28;20232;-71
2023/03/15 06:07:25;;;;;;;2.60;2.17;;;19.10;51.20;;;;;;5037804;28;20190;-69
2023/03/15 06:09:51;;;;;;;2.90;2.35;;;19.10;51.20;;;;;;5037154;28;20198;-69
2023/03/15 06:12:18;;;;;;;2.47;2.15;;;19.10;51.20;;;;;;5053059;28;20186;-70
2023/03/15 06:14:44;;;;;;;4.28;2.10;;;19.10;51.20;;;;;;5034296;28;20661;-70
2023/03/15 06:17:10;;;;;;;3.10;2.15;;;19.10;51.20;;;;;;5034263;28;20197;-70
2023/03/15 06:19:37;;;;;;;2.60;2.40;;;19.10;51.20;;;;;;5034271;28;20206;-70
2023/03/15 06:22:03;;;;;;;4.80;2.42;;;19.10;51.10;;;;;;5051299;28;20193;-70
2023/03/15 06:24:40;;;;;;;2.80;2.30;;;19.10;51.10;;;;;;5036177;28;20213;-70
2023/03/15 06:27:07;;;;;;;3.28;2.13;;;19.10;51.10;;;;;;5034360;28;20182;-70
2023/03/15 06:29:34;;;;;;;3.15;2.42;;;19.10;51.10;;;;;;5028028;28;20208;-70
2023/03/15 06:32:02;;;;;;;3.17;2.33;;;19.10;51.60;;;;;;5036054;28;20206;-69
2023/03/15 06:34:28;;;;;;;3.08;2.05;;;19.10;51.10;;;;;;5052817;28;20248;-69
2023/03/15 06:36:54;;;;;;;4.07;2.00;;;19.10;51.00;;;;;;5035841;28;20235;-69
2023/03/15 06:39:22;;;;;;;2.83;2.03;;;19.10;51.00;;;;;;5035819;28;20264;-69
2023/03/15 06:41:52;;;;;;;2.58;2.03;;;19.10;51.00;;;;;;5039946;28;20566;-69
2023/03/15 06:44:19;;;;;;;3.58;2.55;;;19.10;51.00;;;;;;5035819;28;20210;-69
2023/03/15 06:46:48;;;;;;;3.13;2.17;;;19.10;51.00;;;;;;5051716;28;20270;-69
2023/03/15 06:49:13;;;;;;;4.40;2.17;;;19.20;51.00;;;;;;5035542;28;20266;-69
2023/03/15 06:51:43;;;;;;;4.53;2.22;;;19.20;51.00;;;;;;5035884;28;20182;-70
2023/03/15 06:54:10;;;;;;;2.80;2.00;;;19.10;50.80;;;;;;5052234;28;20186;-70
2023/03/15 06:56:36;;;;;;;2.42;1.77;;;19.20;50.90;;;;;;5035114;28;20193;-68
2023/03/15 06:59:02;;;;;;;2.75;2.15;;;19.20;51.00;;;;;;5052308;28;20300;-69
2023/03/15 07:01:28;;;;;;;4.03;2.20;;;19.10;50.80;;;;;;5052147;28;20193;-70
2023/03/15 07:03:54;;;;;;;1.90;1.80;;;19.20;51.50;;;;;;5052053;28;20214;-69
2023/03/15 07:06:19;;;;;;;4.07;2.20;;;19.20;50.60;;;;;;5052032;28;20218;-69
2023/03/15 07:08:45;;;;;;;2.45;2.10;;;19.30;50.80;;;;;;5051536;28;20202;-70
2023/03/15 07:11:12;;;;;;;4.15;2.20;;;19.30;50.70;;;;;;5035052;28;20194;-69
2023/03/15 07:13:38;;;;;;;2.75;2.00;;;19.30;50.70;;;;;;5034990;28;20194;-69
2023/03/15 07:16:04;;;;;;;3.78;1.92;;;19.20;50.60;;;;;;5035395;28;20205;-70
2023/03/15 07:18:35;;;;;;;2.72;2.15;;;19.30;50.70;;;;;;5051268;28;20218;-69
2023/03/15 07:21:03;;;;;;;2.45;2.05;;;19.30;50.80;;;;;;5035294;28;20190;-70
2023/03/15 07:23:31;;;;;;;3.05;2.13;;;19.30;50.70;;;;;;5034752;28;20583;-70
2023/03/15 07:25:57;;;;;;;2.75;1.73;;;19.30;50.70;;;;;;5051319;28;20182;-70
2023/03/15 07:28:25;;;;;;;2.72;1.88;;;19.40;51.40;;;;;;5035171;28;20240;-71
2023/03/15 07:31:03;;;;;;;2.97;1.98;;;19.40;50.80;;;;;;5044108;28;20187;-69
2023/03/15 07:33:32;;;;;;;2.22;1.95;;;19.40;50.80;;;;;;5051269;28;20194;-69
2023/03/15 07:35:59;;;;;;;2.67;1.75;;;19.40;50.80;;;;;;5051094;28;20201;-69
2023/03/15 07:38:27;;;;;;;2.33;2.10;;;19.40;50.60;;;;;;5033735;28;20226;-69
2023/03/15 07:40:54;;;;;;;1.98;1.75;;;19.50;50.70;;;;;;5051418;28;20719;-70
2023/03/15 07:43:21;;;;;;;2.97;1.80;;;19.50;50.60;;;;;;5034403;28;20301;-68
2023/03/15 07:45:50;;;;;;;2.13;1.77;;;19.50;50.50;;;;;;5035056;28;20183;-70
2023/03/15 07:48:15;;;;;;;2.30;1.85;;;19.50;50.50;;;;;;5034272;28;20237;-69
2023/03/15 07:50:41;;;;;;;3.08;1.85;;;19.60;50.60;;;;;;5051260;28;20218;-70
2023/03/15 07:53:07;;;;;;;2.33;1.70;;;19.60;50.60;;;;;;5034328;28;20202;-69
2023/03/15 07:55:35;;;;;;;2.15;1.70;;;19.60;50.50;;;;;;5034511;28;20202;-70
2023/03/15 07:58:01;;;;;;;2.15;1.80;;;19.60;50.50;;;;;;5034219;28;20221;-69
2023/03/15 08:00:28;;;;;;;2.35;1.52;;;19.60;50.50;;;;;;5034248;28;20325;-70
2023/03/15 08:02:54;;;;;;;3.63;1.88;;;19.60;50.40;;;;;;5033772;28;20186;-70
2023/03/15 08:05:20;;;;;;;2.75;1.50;;;19.60;50.50;;;;;;5050676;28;20191;-69
2023/03/15 08:07:50;;;;;;;2.35;1.70;;;19.70;50.50;;;;;;5034030;28;20182;-70
2023/03/15 08:10:17;;;;;;;1.85;1.50;;;19.70;50.50;;;;;;5034286;28;20197;-70
2023/03/15 08:12:43;;;;;;;2.60;1.70;;;19.70;50.50;;;;;;5025759;28;20195;-69
2023/03/15 08:15:14;;;;;;;2.78;1.65;;;19.70;50.50;;;;;;5034111;28;20186;-70
2023/03/15 08:17:41;;;;;;;1.85;1.50;;;19.70;50.50;;;;;;5034000;28;20224;-70
2023/03/15 08:20:19;;;;;;;2.03;1.70;;;19.70;50.40;;;;;;5034316;28;20264;-69
2023/03/15 08:22:50;;;;;;;2.97;1.50;;;19.70;50.50;;;;;;5034204;28;20197;-69
2023/03/15 08:25:21;;;;;;;1.83;1.50;;;19.80;50.50;;;;;;5034070;28;20186;-69
2023/03/15 08:27:48;;;;;;;3.05;1.73;;;19.80;50.50;;;;;;5033565;28;20210;-69
2023/03/15 08:30:16;;;;;;;2.33;1.80;;;19.80;50.50;;;;;;5033748;28;20206;-70
2023/03/15 08:32:45;;;;;;;1.52;1.40;;;19.80;50.50;;;;;;5033509;28;20186;-69
2023/03/15 08:35:14;;;;;;;1.70;1.30;;;19.80;50.50;;;;;;5033912;28;20743;-69
2023/03/15 08:37:40;;;;;;;2.03;1.60;;;19.80;50.50;;;;;;5033535;28;20214;-67
2023/03/15 08:40:09;;;;;;;1.60;1.35;;;19.80;50.50;;;;;;5033679;28;20275;-70
2023/03/15 08:42:36;;;;;;;2.20;1.60;;;19.80;50.50;;;;;;5033493;28;20187;-69
2023/03/15 08:45:05;;;;;;;1.98;1.55;;;19.80;50.40;;;;;;5050344;28;20299;-70
2023/03/15 08:47:34;;;;;;;1.70;1.60;;;19.80;50.50;;;;;;5033109;28;20193;-69
2023/03/15 08:50:04;;;;;;;2.80;1.80;;;19.80;50.40;;;;;;5037902;28;20203;-69
2023/03/15 08:52:30;;;;;;;1.77;1.35;;;19.90;50.50;;;;;;5037830;28;20277;-70
2023/03/15 08:54:57;;;;;;;2.53;1.50;;;19.90;50.40;;;;;;5037637;28;20221;-70
2023/03/15 08:57:27;;;;;;;1.98;1.70;;;19.90;50.50;;;;;;5037528;28;20284;-70
2023/03/15 08:59:54;;;;;;;1.75;1.40;;;19.80;50.40;;;;;;5037882;28;20226;-70
2023/03/15 09:02:22;;;;;;;1.33;1.23;;;19.80;50.40;;;;;;5054382;28;20194;-70
2023/03/15 09:04:48;;;;;;;1.55;1.38;;;19.90;50.50;;;;;;5037327;28;20213;-69
2023/03/15 09:07:14;;;;;;;1.27;1.17;;;19.90;50.50;;;;;;5037284;28;20190;-70
2023/03/15 09:09:40;;;;;;;1.33;1.17;;;19.90;50.50;;;;;;5037599;28;20206;-70
2023/03/15 09:12:07;;;;;;;3.60;1.83;;;19.90;50.50;;;;;;5037742;28;20672;-70
2023/03/15 09:14:33;;;;;;;2.05;1.25;;;19.90;50.50;;;;;;5037253;28;20669;-70
2023/03/15 09:16:59;;;;;;;1.40;1.30;;;19.90;50.50;;;;;;5053740;28;20676;-71
2023/03/15 09:19:24;;;;;;;1.48;1.30;;;19.90;50.50;;;;;;5037206;28;20260;-69
2023/03/15 09:21:50;;;;;;;1.80;1.30;;;19.90;50.40;;;;;;5037764;28;20196;-69
2023/03/15 09:24:17;;;;;;;2.95;1.35;;;19.90;50.40;;;;;;5037478;28;20589;-69
2023/03/15 09:26:42;;;;;;;2.00;1.35;;;19.90;50.40;;;;;;5053847;28;20179;-69
2023/03/15 09:29:08;;;;;;;1.30;1.20;;;19.90;50.40;;;;;;5036872;28;20210;-69
2023/03/15 09:31:34;;;;;;;1.27;1.17;;;19.90;50.40;;;;;;5036878;28;20569;-70
2023/03/15 09:34:00;;;;;;;1.73;1.17;;;19.90;50.40;;;;;;5037009;28;20190;-69
2023/03/15 09:36:26;;;;;;;1.17;1.10;;;19.90;50.30;;;;;;5037024;28;20193;-70
2023/03/15 09:38:52;;;;;;;1.50;1.10;;;19.90;50.40;;;;;;5075540;22;20241;-70
2023/03/15 09:41:41;;;;;;;1.40;1.30;;;19.90;50.30;;;;;;5041031;28;20685;-70
2023/03/15 09:44:31;;;;;;;1.60;1.17;;;19.90;50.20;;;;;;5041160;28;20218;-69
2023/03/15 09:47:15;;;;;;;2.00;1.30;;;19.90;50.20;;;;;;5062724;28;20186;-69
2023/03/15 09:49:47;;;;;;;2.15;1.52;;;19.90;50.30;;;;;;5053276;28;20214;-70
2023/03/15 09:52:34;;;;;;;1.35;1.15;;;19.90;50.30;;;;;;5033363;28;20309;-70
2023/03/15 09:55:25;;;;;;;1.63;1.20;;;19.90;50.40;;;;;;5029766;28;20194;-70
2023/03/15 09:58:23;;;;;;;1.13;1.02;;;19.90;50.30;;;;;;5028213;28;20234;-69
2023/03/15 10:01:00;;;;;;;1.52;1.15;;;20.00;50.30;;;;;;5051808;28;20194;-70
2023/03/15 10:03:47;;;;;;;1.50;1.10;;;20.00;50.30;;;;;;5036601;28;20209;-69
2023/03/15 10:06:23;;;;;;;1.20;1.10;;;20.00;50.30;;;;;;5053144;28;20182;-69
2023/03/15 10:08:55;;;;;;;1.40;1.17;;;20.00;50.30;;;;;;5052764;28;20224;-69
2023/03/15 10:11:46;;;;;;;1.42;1.00;;;20.00;50.30;;;;;;5053041;28;20221;-69
2023/03/15 10:14:33;;;;;;;1.30;1.20;;;20.00;50.20;;;;;;5036213;28;20233;-69
2023/03/15 10:17:10;;;;;;;1.75;1.20;;;20.00;50.20;;;;;;5045808;28;20191;-70
2023/03/15 10:19:54;;;;;;;1.25;1.10;;;20.00;50.20;;;;;;5052558;28;20214;-69
2023/03/15 10:22:35;;;;;;;1.77;1.13;;;20.00;50.20;;;;;;5036146;28;20187;-70
2023/03/15 10:25:26;;;;;;;1.15;1.00;;;20.00;50.30;;;;;;5052752;28;20686;-69
2023/03/15 10:28:00;;;;;;;1.10;1.00;;;20.00;50.20;;;;;;5052459;28;20194;-69
2023/03/15 10:30:33;;;;;;;2.30;1.23;;;20.00;50.30;;;;;;5035854;28;20685;-70
2023/03/15 10:33:12;;;;;;;1.30;1.20;;;20.00;50.20;;;;;;5047680;28;20692;-69
2023/03/15 10:35:38;;;;;;;1.55;1.27;;;20.00;50.20;;;;;;5036042;28;20194;-69
2023/03/15 10:38:25;;;;;;;1.75;0.98;;;20.00;50.20;;;;;;5035675;28;20182;-70
2023/03/15 10:40:57;;;;;;;1.48;1.13;;;20.00;50.20;;;;;;5052362;28;20542;-69
2023/03/15 10:43:35;;;;;;;1.10;0.90;;;20.00;50.20;;;;;;5052306;28;20214;-70
2023/03/15 10:46:20;;;;;;;1.40;1.25;;;20.00;50.30;;;;;;5028719;28;20187;-70
2023/03/15 10:49:15;;;;;;;1.90;1.30;;;20.00;50.20;;;;;;5051883;28;20627;-70
2023/03/15 10:51:47;;;;;;;1.85;1.25;;;20.00;50.20;;;;;;5035655;28;20548;-70
2023/03/15 10:54:16;;;;;;;0.82;0.82;;;20.00;50.20;;;;;;5035672;28;20194;-70
2023/03/15 10:57:04;;;;;;;1.38;0.98;;;20.00;50.20;;;;;;5051672;28;20684;-70
2023/03/15 10:59:34;;;;;;;1.17;1.08;;;20.00;50.10;;;;;;5032339;28;20598;-70
2023/03/15 11:02:12;;;;;;;1.10;0.98;;;20.00;50.20;;;;;;5052136;28;20201;-70
2023/03/15 11:04:46;;;;;;;1.30;1.02;;;20.00;50.80;;;;;;5035265;28;20237;-69
2023/03/15 11:07:12;;;;;;;1.13;1.00;;;20.00;50.20;;;;;;5051780;28;20190;-69
2023/03/15 11:09:51;;;;;;;0.80;0.80;;;20.00;50.20;;;;;;5051541;28;20206;-69
2023/03/15 11:12:26;;;;;;;2.17;1.10;;;20.00;50.20;;;;;;5034219;28;20220;-69
2023/03/15 11:15:09;;;;;;;0.80;0.77;;;20.00;50.20;;;;;;5051739;28;20236;-69
2023/03/15 11:17:44;;;;;;;1.33;0.90;;;20.00;50.20;;;;;;5051344;28;20194;-69
2023/03/15 11:20:28;;;;;;;1.17;1.08;;;20.00;50.20;;;;;;5051853;28;20241;-70
2023/03/15 11:22:56;;;;;;;1.23;1.13;;;20.00;50.10;;;;;;5031563;28;20202;-69
2023/03/15 11:25:30;;;;;;;1.10;0.93;;;20.00;50.20;;;;;;5051529;28;20611;-70
2023/03/15 11:27:56;;;;;;;0.95;0.80;;;20.00;50.20;;;;;;5043077;28;20197;-69
2023/03/15 11:30:30;;;;;;;1.30;1.20;;;20.00;50.20;;;;;;5051379;28;20205;-70
2023/03/15 11:33:05;;;;;;;1.48;1.13;;;20.00;50.30;;;;;;5035012;28;20268;-70
2023/03/15 11:35:47;;;;;;;0.93;0.80;;;20.00;50.20;;;;;;5051376;28;20240;-69
2023/03/15 11:38:22;;;;;;;1.00;0.82;;;20.00;50.30;;;;;;5048323;28;20190;-70
2023/03/15 11:40:55;;;;;;;1.00;0.98;;;20.00;50.20;;;;;;5033680;28;20322;-70
2023/03/15 11:43:37;;;;;;;1.02;1.00;;;20.00;50.20;;;;;;5051233;28;20276;-70
2023/03/15 11:46:31;;;;;;;1.42;0.90;;;20.00;50.20;;;;;;5044357;28;20183;-71
2023/03/15 11:49:28;;;;;;;1.85;1.08;;;20.00;50.20;;;;;;5051382;28;20202;-71
2023/03/15 11:51:56;;;;;;;1.52;0.90;;;20.00;50.10;;;;;;5053043;28;20251;-71
2023/03/15 11:54:25;;;;;;;0.70;0.70;;;20.00;50.10;;;;;;5030184;28;20714;-70
2023/03/15 11:56:56;;;;;;;1.45;0.82;;;20.00;50.10;;;;;;5050718;28;20250;-70
2023/03/15 11:59:35;;;;;;;2.95;1.02;;;20.00;50.10;;;;;;5046416;28;20211;-70
2023/03/15 12:02:13;;;;;;;0.85;0.70;;;20.00;50.10;;;;;;5048959;28;20182;-70
2023/03/15 12:04:53;;;;;;;1.85;1.00;;;20.00;50.10;;;;;;5050712;28;20206;-70
2023/03/15 12:07:18;;;;;;;1.33;1.00;;;20.00;50.10;;;;;;5045929;28;20187;-70
2023/03/15 12:10:03;;;;;;;0.90;0.90;;;20.00;50.20;;;;;;5034355;28;20256;-71
2023/03/15 12:12:29;;;;;;;0.80;0.80;;;20.00;50.10;;;;;;5049747;28;20186;-71
2023/03/15 12:15:12;;;;;;;0.93;0.88;;;20.00;50.10;;;;;;5033765;28;20216;-71
2023/03/15 12:17:57;;;;;;;0.80;0.80;;;20.00;50.10;;;;;;5025898;28;20186;-72
2023/03/15 12:20:38;;;;;;;1.23;1.00;;;20.00;50.70;;;;;;5048712;28;20240;-72
2023/03/15 12:24:07;;;;;;;0.88;0.80;;;20.00;50.10;;;;;;5048377;28;20217;-72
2023/03/15 12:26:47;;;;;;;0.90;0.90;;;20.00;50.10;;;;;;5030382;28;20198;-71
2023/03/15 12:29:22;;;;;;;1.15;0.90;;;20.00;50.00;;;;;;5033331;28;20238;-71
2023/03/15 12:32:00;;;;;;;1.85;1.13;;;20.00;50.10;;;;;;5049767;28;20222;-71
2023/03/15 12:34:53;;;;;;;1.17;0.98;;;20.00;49.90;;;;;;5049032;28;20189;-71
2023/03/15 12:37:45;;;;;;;1.10;0.80;;;20.00;50.10;;;;;;5045049;28;20214;-72
2023/03/15 12:40:17;;;;;;;1.08;0.98;;;20.00;50.00;;;;;;5050395;28;20217;-71
2023/03/15 12:42:43;;;;;;;1.08;0.85;;;20.00;50.10;;;;;;5028790;28;20557;-72
2023/03/15 12:45:40;;;;;;;0.85;0.70;;;20.00;50.10;;;;;;5044565;28;20206;-71
2023/03/15 12:48:07;;;;;;;1.13;0.90;;;20.00;49.90;;;;;;5029790;28;20196;-72
2023/03/15 12:50:42;;;;;;;0.90;0.73;;;20.00;50.00;;;;;;5032035;28;20202;-72
2023/03/15 12:53:37;;;;;;;1.23;0.90;;;20.00;49.90;;;;;;5025866;28;20232;-71
2023/03/15 12:56:17;;;;;;;0.70;0.70;;;20.00;50.00;;;;;;5033931;28;20194;-71
2023/03/15 12:58:51;;;;;;;1.05;0.80;;;20.00;50.00;;;;;;5049850;28;20284;-72
2023/03/15 13:01:18;;;;;;;0.60;0.60;;;20.00;50.00;;;;;;5050229;28;20285;-72
2023/03/15 13:03:43;;;;;;;0.88;0.80;;;20.00;50.00;;;;;;5050179;28;20253;-71
2023/03/15 13:06:39;;;;;;;1.00;0.90;;;20.00;49.90;;;;;;5050270;28;20260;-72
2023/03/15 13:09:33;;;;;;;1.60;0.85;;;20.00;49.90;;;;;;5033294;28;20194;-71
2023/03/15 13:12:20;;;;;;;0.63;0.60;;;20.00;50.00;;;;;;5049973;28;20186;-71
2023/03/15 13:15:01;;;;;;;1.35;0.90;;;20.00;49.90;;;;;;5033338;28;20573;-71
2023/03/15 13:17:38;;;;;;;0.88;0.70;;;20.00;50.00;;;;;;5033374;28;20190;-71
2023/03/15 13:20:28;;;;;;;1.00;0.90;;;20.00;50.00;;;;;;5033413;28;20296;-71